sensor_id;sensor_type;location;lat;lon;timestamp;pressure;altitude;pressure_sealevel;temperature;humidity
84136;BME280;74238;50.566;7.262;2024-02-15T00:01:26;101208.72;;;10.27;90.02
84136;BME280;74238;50.566;7.262;2024-02-15T00:03:52;101271.97;;;10.59;90.05
84136;BME280;74238;50.566;7.262;2024-02-15T00:06:18;101197.28;;;10.19;90.56
84136;BME280;74238;50.566;7.262;2024-02-15T00:08:44;101208.72;;;10.29;89.54
84136;BME280;74238;50.566;7.262;2024-02-15T00:11:10;101252.59;;;10.57;90.17
84136;BME280;74238;50.566;7.262;2024-02-15T00:13:35;101263.16;;;10.62;89.88
84136;BME280;74238;50.566;7.262;2024-02-15T00:16:01;101266.66;;;10.62;90.15
84136;BME280;74238;50.566;7.262;2024-02-15T00:18:27;101250.00;;;10.51;89.51
84136;BME280;74238;50.566;7.262;2024-02-15T00:20:52;101259.66;;;10.61;90.13
84136;BME280;74238;50.566;7.262;2024-02-15T00:23:17;101192.03;;;10.13;90.29
84136;BME280;74238;50.566;7.262;2024-02-15T00:25:44;101241.22;;;10.43;89.86
84136;BME280;74238;50.566;7.262;2024-02-15T00:28:11;101235.06;;;10.41;90.38
84136;BME280;74238;50.566;7.262;2024-02-15T00:30:37;101259.63;;;10.58;89.68
84136;BME280;74238;50.566;7.262;2024-02-15T00:33:03;101263.19;;;10.56;90.08
84136;BME280;74238;50.566;7.262;2024-02-15T00:35:29;101240.34;;;10.41;89.88
84136;BME280;74238;50.566;7.262;2024-02-15T00:37:55;101276.38;;;10.59;90.40
84136;BME280;74238;50.566;7.262;2024-02-15T00:40:20;101281.66;;;10.57;89.53
84136;BME280;74238;50.566;7.262;2024-02-15T00:42:46;101265.81;;;10.54;89.89
84136;BME280;74238;50.566;7.262;2024-02-15T00:45:12;101249.16;;;10.40;90.36
84136;BME280;74238;50.566;7.262;2024-02-15T00:47:37;101280.78;;;10.55;90.15
84136;BME280;74238;50.566;7.262;2024-02-15T00:50:03;101278.16;;;10.54;90.61
84136;BME280;74238;50.566;7.262;2024-02-15T00:52:29;101264.09;;;10.49;90.33
84136;BME280;74238;50.566;7.262;2024-02-15T00:54:56;101272.88;;;10.54;90.15
84136;BME280;74238;50.566;7.262;2024-02-15T00:57:22;101269.34;;;10.55;90.04
84136;BME280;74238;50.566;7.262;2024-02-15T00:59:47;101270.22;;;10.54;89.33
84136;BME280;74238;50.566;7.262;2024-02-15T01:02:13;101269.34;;;10.55;90.17
84136;BME280;74238;50.566;7.262;2024-02-15T01:04:40;101272.00;;;10.53;89.46
84136;BME280;74238;50.566;7.262;2024-02-15T01:07:08;101244.78;;;10.28;90.44
84136;BME280;74238;50.566;7.262;2024-02-15T01:09:33;101249.19;;;10.31;90.10
84136;BME280;74238;50.566;7.262;2024-02-15T01:11:58;101263.25;;;10.37;90.33
84136;BME280;74238;50.566;7.262;2024-02-15T01:14:24;101235.97;;;10.20;89.84
84136;BME280;74238;50.566;7.262;2024-02-15T01:16:49;101283.44;;;10.45;90.54
84136;BME280;74238;50.566;7.262;2024-02-15T01:19:14;101257.09;;;10.28;90.65
84136;BME280;74238;50.566;7.262;2024-02-15T01:21:40;101259.72;;;10.25;90.76
84136;BME280;74238;50.566;7.262;2024-02-15T01:24:06;101240.41;;;10.13;90.40
84136;BME280;74238;50.566;7.262;2024-02-15T01:26:32;101236.91;;;10.13;89.96
84136;BME280;74238;50.566;7.262;2024-02-15T01:28:57;101251.81;;;10.20;90.13
84136;BME280;74238;50.566;7.262;2024-02-15T01:31:22;101292.25;;;10.39;90.60
84136;BME280;74238;50.566;7.262;2024-02-15T01:33:48;101289.63;;;10.40;89.97
84136;BME280;74238;50.566;7.262;2024-02-15T01:36:17;101287.00;;;10.40;89.81
84136;BME280;74238;50.566;7.262;2024-02-15T01:38:43;101246.56;;;10.08;89.77
84136;BME280;74238;50.566;7.262;2024-02-15T01:41:09;101286.09;;;10.38;90.25
84136;BME280;74238;50.566;7.262;2024-02-15T01:43:35;101282.56;;;10.39;89.98
84136;BME280;74238;50.566;7.262;2024-02-15T01:46:01;101287.00;;;10.37;89.89
84136;BME280;74238;50.566;7.262;2024-02-15T01:48:32;101286.09;;;10.38;90.32
84136;BME280;74238;50.566;7.262;2024-02-15T01:50:58;101265.88;;;10.27;90.40
84136;BME280;74238;50.566;7.262;2024-02-15T01:53:24;101235.13;;;10.12;90.72
84136;BME280;74238;50.566;7.262;2024-02-15T01:55:52;101276.44;;;10.36;90.06
84136;BME280;74238;50.566;7.262;2024-02-15T01:58:18;101269.41;;;10.33;90.58
84136;BME280;74238;50.566;7.262;2024-02-15T02:00:45;101270.31;;;10.32;90.22
84136;BME280;74238;50.566;7.262;2024-02-15T02:03:13;101236.00;;;10.14;91.00
84136;BME280;74238;50.566;7.262;2024-02-15T02:05:40;101265.88;;;10.31;89.97
84136;BME280;74238;50.566;7.262;2024-02-15T02:08:06;101239.53;;;10.16;90.74
84136;BME280;74238;50.566;7.262;2024-02-15T02:10:36;101252.69;;;10.27;90.04
84136;BME280;74238;50.566;7.262;2024-02-15T02:13:02;101253.59;;;10.30;90.55
84136;BME280;74238;50.566;7.262;2024-02-15T02:15:29;101258.84;;;10.30;90.58
84136;BME280;74238;50.566;7.262;2024-02-15T02:17:57;101254.47;;;10.28;90.86
84136;BME280;74238;50.566;7.262;2024-02-15T02:20:25;101257.97;;;10.25;90.17
84136;BME280;74238;50.566;7.262;2024-02-15T02:22:53;101248.28;;;10.24;90.32
84136;BME280;74238;50.566;7.262;2024-02-15T02:25:20;101248.31;;;10.18;90.32
84136;BME280;74238;50.566;7.262;2024-02-15T02:27:47;101215.78;;;10.04;90.67
84136;BME280;74238;50.566;7.262;2024-02-15T02:30:14;101243.03;;;10.21;91.06
84136;BME280;74238;50.566;7.262;2024-02-15T02:32:41;101236.88;;;10.20;90.37
84136;BME280;74238;50.566;7.262;2024-02-15T02:35:06;101246.53;;;10.21;90.18
84136;BME280;74238;50.566;7.262;2024-02-15T02:37:32;101230.72;;;10.21;90.31
84136;BME280;74238;50.566;7.262;2024-02-15T02:40:01;101236.84;;;10.22;91.33
84136;BME280;74238;50.566;7.262;2024-02-15T02:42:27;101191.19;;;9.95;90.80
84136;BME280;74238;50.566;7.262;2024-02-15T02:44:52;101232.47;;;10.24;90.69
84136;BME280;74238;50.566;7.262;2024-02-15T02:47:18;101236.84;;;10.25;91.27
84136;BME280;74238;50.566;7.262;2024-02-15T02:49:43;101240.34;;;10.26;90.51
84136;BME280;74238;50.566;7.262;2024-02-15T02:52:08;101208.72;;;10.12;91.11
84136;BME280;74238;50.566;7.262;2024-02-15T02:54:34;101223.66;;;10.28;90.54
84136;BME280;74238;50.566;7.262;2024-02-15T02:57:00;101223.66;;;10.28;90.93
84136;BME280;74238;50.566;7.262;2024-02-15T02:59:25;101204.31;;;10.17;91.12
84136;BME280;74238;50.566;7.262;2024-02-15T03:01:50;101204.31;;;10.20;91.24
84136;BME280;74238;50.566;7.262;2024-02-15T03:04:16;101160.44;;;9.94;90.96
84136;BME280;74238;50.566;7.262;2024-02-15T03:06:44;101199.94;;;10.16;90.31
84136;BME280;74238;50.566;7.262;2024-02-15T03:09:10;101161.31;;;9.96;89.91
84136;BME280;74238;50.566;7.262;2024-02-15T03:11:36;101155.16;;;9.94;90.82
84136;BME280;74238;50.566;7.262;2024-02-15T03:14:02;101201.66;;;10.20;90.67
84136;BME280;74238;50.566;7.262;2024-02-15T03:16:32;101208.72;;;10.19;91.26
84136;BME280;74238;50.566;7.262;2024-02-15T03:18:57;101154.28;;;9.94;91.20
84136;BME280;74238;50.566;7.262;2024-02-15T03:21:23;101206.97;;;10.18;89.91
84136;BME280;74238;50.566;7.262;2024-02-15T03:23:51;101199.91;;;10.17;91.06
84136;BME280;74238;50.566;7.262;2024-02-15T03:26:23;101183.28;;;10.00;90.34
84136;BME280;74238;50.566;7.262;2024-02-15T03:28:54;101173.63;;;9.99;90.37
84136;BME280;74238;50.566;7.262;2024-02-15T03:31:20;101205.22;;;10.11;91.32
84136;BME280;74238;50.566;7.262;2024-02-15T03:33:45;101142.03;;;9.77;90.57
84136;BME280;74238;50.566;7.262;2024-02-15T03:36:11;101202.59;;;10.10;91.56
84136;BME280;74238;50.566;7.262;2024-02-15T03:38:38;101200.81;;;10.12;90.42
84136;BME280;74238;50.566;7.262;2024-02-15T03:41:03;101191.16;;;10.08;91.57
84136;BME280;74238;50.566;7.262;2024-02-15T03:43:30;101199.06;;;10.11;91.43
84136;BME280;74238;50.566;7.262;2024-02-15T03:45:56;101202.59;;;10.10;90.74
84136;BME280;74238;50.566;7.262;2024-02-15T03:48:22;101197.31;;;10.07;91.62
84136;BME280;74238;50.566;7.262;2024-02-15T03:50:49;101183.31;;;9.94;91.51
84136;BME280;74238;50.566;7.262;2024-02-15T03:53:16;101211.41;;;10.03;91.52
84136;BME280;74238;50.566;7.262;2024-02-15T03:55:41;101153.44;;;9.70;90.91
84136;BME280;74238;50.566;7.262;2024-02-15T03:58:08;101204.38;;;9.98;91.24
84136;BME280;74238;50.566;7.262;2024-02-15T04:00:34;101207.03;;;10.02;91.09
84136;BME280;74238;50.566;7.262;2024-02-15T04:02:59;101190.34;;;9.93;91.69
84136;BME280;74238;50.566;7.262;2024-02-15T04:05:25;101205.25;;;9.97;90.80
84136;BME280;74238;50.566;7.262;2024-02-15T04:07:51;101165.75;;;9.71;91.58
84136;BME280;74238;50.566;7.262;2024-02-15T04:10:17;101166.63;;;9.76;91.13
84136;BME280;74238;50.566;7.262;2024-02-15T04:12:43;101207.91;;;10.02;90.91
84136;BME280;74238;50.566;7.262;2024-02-15T04:15:09;101159.56;;;9.82;91.09
84136;BME280;74238;50.566;7.262;2024-02-15T04:17:39;101206.97;;;10.09;90.40
84136;BME280;74238;50.566;7.262;2024-02-15T04:20:05;101189.44;;;10.02;90.42
84136;BME280;74238;50.566;7.262;2024-02-15T04:22:32;101200.81;;;10.12;91.76
84136;BME280;74238;50.566;7.262;2024-02-15T04:25:03;101199.94;;;10.11;90.38
84136;BME280;74238;50.566;7.262;2024-02-15T04:27:28;101174.50;;;9.96;91.18
84136;BME280;74238;50.566;7.262;2024-02-15T04:29:53;101176.25;;;9.94;90.24
84136;BME280;74238;50.566;7.262;2024-02-15T04:32:19;101184.16;;;9.94;90.68
84136;BME280;74238;50.566;7.262;2024-02-15T04:34:45;101199.09;;;10.02;91.05
84136;BME280;74238;50.566;7.262;2024-02-15T04:37:12;101195.59;;;9.96;91.24
84136;BME280;74238;50.566;7.262;2024-02-15T04:39:38;101194.72;;;9.97;90.80
84136;BME280;74238;50.566;7.262;2024-02-15T04:42:04;101134.16;;;9.56;90.73
84136;BME280;74238;50.566;7.262;2024-02-15T04:44:31;101175.41;;;9.82;90.61
84136;BME280;74238;50.566;7.262;2024-02-15T04:47:00;101194.72;;;9.91;91.37
84136;BME280;74238;50.566;7.262;2024-02-15T04:49:27;101152.59;;;9.67;91.62
84136;BME280;74238;50.566;7.262;2024-02-15T04:51:54;101190.31;;;9.87;90.42
84136;BME280;74238;50.566;7.262;2024-02-15T04:54:20;101185.03;;;9.90;91.33
84136;BME280;74238;50.566;7.262;2024-02-15T04:56:45;101194.72;;;9.90;90.25
84136;BME280;74238;50.566;7.262;2024-02-15T04:59:11;101192.97;;;9.89;90.65
84136;BME280;74238;50.566;7.262;2024-02-15T10:57:58;101076.88;;;14.12;76.01
84136;BME280;74238;50.566;7.262;2024-02-15T11:00:43;101095.34;;;14.18;75.25
84136;BME280;74238;50.566;7.262;2024-02-15T11:03:13;101063.91;;;13.99;75.64
84136;BME280;74238;50.566;7.262;2024-02-15T11:05:42;101078.66;;;14.12;75.49
84136;BME280;74238;50.566;7.262;2024-02-15T11:08:09;101084.06;;;14.09;75.30
84136;BME280;74238;50.566;7.262;2024-02-15T11:10:36;101056.09;;;13.91;75.94
84136;BME280;74238;50.566;7.262;2024-02-15T11:13:03;101053.44;;;13.91;75.34
84136;BME280;74238;50.566;7.262;2024-02-15T11:18:02;101082.28;;;14.08;74.94
84136;BME280;74238;50.566;7.262;2024-02-15T11:23:01;101073.47;;;14.06;75.80
84136;BME280;74238;50.566;7.262;2024-02-15T11:25:33;101036.50;;;13.98;74.46
84136;BME280;74238;50.566;7.262;2024-02-15T11:30:51;101043.28;;;14.11;74.14
84136;BME280;74238;50.566;7.262;2024-02-15T11:33:30;101035.41;;;14.07;74.04
84136;BME280;74238;50.566;7.262;2024-02-15T11:36:08;101057.00;;;14.30;74.50
84136;BME280;74238;50.566;7.262;2024-02-15T11:38:38;101058.66;;;14.36;74.66
84136;BME280;74238;50.566;7.262;2024-02-15T11:41:09;101050.53;;;14.42;74.12
84136;BME280;74238;50.566;7.262;2024-02-15T11:43:52;101047.81;;;14.45;73.77
84136;BME280;74238;50.566;7.262;2024-02-15T11:46:22;101031.09;;;14.40;74.12
84136;BME280;74238;50.566;7.262;2024-02-15T11:48:50;101023.91;;;14.44;73.27
84136;BME280;74238;50.566;7.262;2024-02-15T11:57:20;101002.41;;;14.56;72.95
84136;BME280;74238;50.566;7.262;2024-02-15T12:00:01;101017.16;;;14.69;73.42
84136;BME280;74238;50.566;7.262;2024-02-15T12:02:50;101005.69;;;14.67;73.25
84136;BME280;74238;50.566;7.262;2024-02-15T12:05:34;100984.50;;;14.64;72.17
84136;BME280;74238;50.566;7.262;2024-02-15T12:08:18;101017.59;;;14.87;72.25
84136;BME280;74238;50.566;7.262;2024-02-15T12:11:01;101009.66;;;14.85;71.86
84136;BME280;74238;50.566;7.262;2024-02-15T12:13:52;100996.41;;;14.83;71.18
84136;BME280;74238;50.566;7.262;2024-02-15T12:16:36;100977.88;;;14.80;71.95
84136;BME280;74238;50.566;7.262;2024-02-15T12:19:20;101002.09;;;15.04;71.69
84136;BME280;74238;50.566;7.262;2024-02-15T12:21:47;100996.63;;;15.08;71.71
84136;BME280;74238;50.566;7.262;2024-02-15T12:24:13;100990.13;;;15.19;70.86
84136;BME280;74238;50.566;7.262;2024-02-15T12:26:39;100993.28;;;15.33;70.60
84136;BME280;74238;50.566;7.262;2024-02-15T12:29:07;100988.63;;;15.41;70.91
84136;BME280;74238;50.566;7.262;2024-02-15T12:31:35;100986.66;;;15.48;69.71
84136;BME280;74238;50.566;7.262;2024-02-15T12:34:04;100978.78;;;15.45;69.98
84136;BME280;74238;50.566;7.262;2024-02-15T12:36:34;100959.41;;;15.40;69.83
84136;BME280;74238;50.566;7.262;2024-02-15T12:39:07;100955.72;;;15.44;68.72
84136;BME280;74238;50.566;7.262;2024-02-15T12:41:48;100920.47;;;15.36;68.83
84136;BME280;74238;50.566;7.262;2024-02-15T12:44:18;100952.72;;;15.56;68.79
84136;BME280;74238;50.566;7.262;2024-02-15T12:52:32;100950.44;;;15.73;65.71
84136;BME280;74238;50.566;7.262;2024-02-15T12:55:16;100944.34;;;15.70;66.34
84136;BME280;74238;50.566;7.262;2024-02-15T12:57:44;100948.66;;;15.74;68.21
84136;BME280;74238;50.566;7.262;2024-02-15T13:00:11;100942.34;;;15.77;68.06
84136;BME280;74238;50.566;7.262;2024-02-15T13:02:43;100922.19;;;15.68;67.01
84136;BME280;74238;50.566;7.262;2024-02-15T13:05:08;100924.84;;;15.69;66.91
84136;BME280;74238;50.566;7.262;2024-02-15T13:07:35;100923.78;;;15.75;67.76
84136;BME280;74238;50.566;7.262;2024-02-15T13:10:01;100892.06;;;15.66;67.46
84136;BME280;74238;50.566;7.262;2024-02-15T13:12:26;100900.59;;;15.79;67.20
84136;BME280;74238;50.566;7.262;2024-02-15T13:14:53;100913.69;;;15.85;67.20
84136;BME280;74238;50.566;7.262;2024-02-15T13:17:19;100912.69;;;15.89;65.27
84136;BME280;74238;50.566;7.262;2024-02-15T13:19:48;100902.38;;;15.78;66.26
84136;BME280;74238;50.566;7.262;2024-02-15T13:22:17;100906.69;;;15.82;66.50
84136;BME280;74238;50.566;7.262;2024-02-15T13:24:44;100907.69;;;15.80;67.70
84136;BME280;74238;50.566;7.262;2024-02-15T13:27:09;100906.94;;;15.75;65.24
84136;BME280;74238;50.566;7.262;2024-02-15T13:29:38;100855.72;;;15.37;67.02
84136;BME280;74238;50.566;7.262;2024-02-15T13:32:06;100883.63;;;15.53;67.31
84136;BME280;74238;50.566;7.262;2024-02-15T13:34:32;100900.31;;;15.58;65.18
84136;BME280;74238;50.566;7.262;2024-02-15T13:37:01;100883.84;;;15.45;67.31
84136;BME280;74238;50.566;7.262;2024-02-15T13:39:29;100889.19;;;15.44;67.63
84136;BME280;74238;50.566;7.262;2024-02-15T13:41:59;100906.00;;;15.46;67.41
84136;BME280;74238;50.566;7.262;2024-02-15T13:44:25;100860.50;;;15.25;67.22
84136;BME280;74238;50.566;7.262;2024-02-15T13:46:50;100883.13;;;15.39;65.46
84136;BME280;74238;50.566;7.262;2024-02-15T13:49:16;100848.28;;;15.18;67.78
84136;BME280;74238;50.566;7.262;2024-02-15T13:51:42;100854.34;;;15.23;66.82
84136;BME280;74238;50.566;7.262;2024-02-15T13:54:07;100849.06;;;15.22;67.23
84136;BME280;74238;50.566;7.262;2024-02-15T13:56:33;100847.13;;;15.27;67.19
84136;BME280;74238;50.566;7.262;2024-02-15T13:58:58;100797.44;;;14.99;67.69
84136;BME280;74238;50.566;7.262;2024-02-15T14:01:24;100849.66;;;15.32;67.04
84136;BME280;74238;50.566;7.262;2024-02-15T14:03:50;100848.72;;;15.34;65.73
84136;BME280;74238;50.566;7.262;2024-02-15T14:06:17;100846.19;;;15.29;66.71
84136;BME280;74238;50.566;7.262;2024-02-15T14:08:43;100846.19;;;15.29;66.99
84136;BME280;74238;50.566;7.262;2024-02-15T14:11:09;100816.47;;;15.15;66.97
84136;BME280;74238;50.566;7.262;2024-02-15T14:13:34;100811.28;;;15.11;66.99
84136;BME280;74238;50.566;7.262;2024-02-15T14:16:01;100815.34;;;15.22;66.75
84136;BME280;74238;50.566;7.262;2024-02-15T14:18:28;100823.19;;;15.27;66.44
84136;BME280;74238;50.566;7.262;2024-02-15T14:20:54;100817.84;;;15.28;66.12
84136;BME280;74238;50.566;7.262;2024-02-15T14:23:20;100809.91;;;15.27;66.54
84136;BME280;74238;50.566;7.262;2024-02-15T14:25:45;100780.41;;;15.06;66.44
84136;BME280;74238;50.566;7.262;2024-02-15T14:28:10;100802.97;;;15.21;66.14
84136;BME280;74238;50.566;7.262;2024-02-15T14:30:36;100780.41;;;15.06;66.30
84136;BME280;74238;50.566;7.262;2024-02-15T14:33:21;100817.84;;;15.28;66.24
84136;BME280;74238;50.566;7.262;2024-02-15T14:35:48;100827.59;;;15.28;66.39
84136;BME280;74238;50.566;7.262;2024-02-15T14:38:13;100819.66;;;15.26;64.66
84136;BME280;74238;50.566;7.262;2024-02-15T14:40:42;100816.06;;;15.27;66.34
84136;BME280;74238;50.566;7.262;2024-02-15T14:43:18;100771.69;;;15.01;66.57
84136;BME280;74238;50.566;7.262;2024-02-15T14:45:46;100810.84;;;15.24;66.29
84136;BME280;74238;50.566;7.262;2024-02-15T14:48:12;100792.56;;;15.14;66.36
84136;BME280;74238;50.566;7.262;2024-02-15T14:50:42;100795.88;;;15.22;65.54
84136;BME280;74238;50.566;7.262;2024-02-15T14:53:08;100783.84;;;15.08;66.12
84136;BME280;74238;50.566;7.262;2024-02-15T14:55:36;100796.91;;;15.16;64.62
84136;BME280;74238;50.566;7.262;2024-02-15T14:58:06;100797.22;;;15.07;65.69
84136;BME280;74238;50.566;7.262;2024-02-15T15:00:35;100755.50;;;14.79;65.99
84136;BME280;74238;50.566;7.262;2024-02-15T15:03:03;100795.84;;;14.94;66.17
84136;BME280;74238;50.566;7.262;2024-02-15T15:05:28;100800.19;;;14.96;65.72
84136;BME280;74238;50.566;7.262;2024-02-15T15:08:12;100809.03;;;14.97;66.47
84136;BME280;74238;50.566;7.262;2024-02-15T15:10:56;100782.97;;;14.78;66.13
84136;BME280;74238;50.566;7.262;2024-02-15T15:13:40;100769.09;;;14.69;66.06
84136;BME280;74238;50.566;7.262;2024-02-15T15:16:06;100791.09;;;14.74;66.00
84136;BME280;74238;50.566;7.262;2024-02-15T15:18:33;100787.66;;;14.70;67.16
84136;BME280;74238;50.566;7.262;2024-02-15T15:20:59;100754.50;;;14.51;66.05
84136;BME280;74238;50.566;7.262;2024-02-15T15:23:28;100807.06;;;14.74;66.07
84136;BME280;74238;50.566;7.262;2024-02-15T15:26:00;100801.97;;;14.65;66.27
84136;BME280;74238;50.566;7.262;2024-02-15T15:28:26;100784.53;;;14.54;67.14
84136;BME280;74238;50.566;7.262;2024-02-15T15:30:51;100767.03;;;14.46;66.73
84136;BME280;74238;50.566;7.262;2024-02-15T15:33:17;100749.69;;;14.34;66.56
84136;BME280;74238;50.566;7.262;2024-02-15T15:35:44;100747.03;;;14.34;67.40
84136;BME280;74238;50.566;7.262;2024-02-15T15:38:10;100760.97;;;14.42;66.35
84136;BME280;74238;50.566;7.262;2024-02-15T15:40:35;100796.78;;;14.60;67.05
84136;BME280;74238;50.566;7.262;2024-02-15T15:43:01;100783.00;;;14.46;67.52
84136;BME280;74238;50.566;7.262;2024-02-15T15:45:28;100812.81;;;14.57;66.62
84136;BME280;74238;50.566;7.262;2024-02-15T15:47:54;100765.84;;;14.25;66.84
84136;BME280;74238;50.566;7.262;2024-02-15T15:50:20;100803.22;;;14.53;67.81
84136;BME280;74238;50.566;7.262;2024-02-15T15:52:45;100799.69;;;14.51;68.07
84136;BME280;74238;50.566;7.262;2024-02-15T15:55:11;100790.94;;;14.47;67.77
84136;BME280;74238;50.566;7.262;2024-02-15T15:57:40;100786.56;;;14.45;66.92
84136;BME280;74238;50.566;7.262;2024-02-15T16:00:10;100760.41;;;14.29;67.90
84136;BME280;74238;50.566;7.262;2024-02-15T16:02:44;100775.19;;;14.39;67.46
84136;BME280;74238;50.566;7.262;2024-02-15T16:05:11;100788.38;;;14.43;67.82
84136;BME280;74238;50.566;7.262;2024-02-15T16:07:41;100778.75;;;14.38;67.20
84136;BME280;74238;50.566;7.262;2024-02-15T16:10:07;100737.84;;;14.13;67.84
84136;BME280;74238;50.566;7.262;2024-02-15T16:12:40;100781.34;;;14.41;67.15
84136;BME280;74238;50.566;7.262;2024-02-15T16:15:07;100722.94;;;14.09;66.97
84136;BME280;74238;50.566;7.262;2024-02-15T16:17:35;100744.69;;;14.22;68.00
84136;BME280;74238;50.566;7.262;2024-02-15T16:20:02;100781.50;;;14.35;67.90
84136;BME280;74238;50.566;7.262;2024-02-15T16:22:30;100739.53;;;14.17;67.05
84136;BME280;74238;50.566;7.262;2024-02-15T16:24:57;100760.53;;;14.25;67.80
84136;BME280;74238;50.566;7.262;2024-02-15T16:27:22;100710.72;;;14.02;67.46
84136;BME280;74238;50.566;7.262;2024-02-15T16:29:48;100742.13;;;14.18;67.10
84136;BME280;74238;50.566;7.262;2024-02-15T16:32:13;100733.50;;;14.10;67.98
84136;BME280;74238;50.566;7.262;2024-02-15T16:34:38;100724.78;;;14.05;67.78
84136;BME280;74238;50.566;7.262;2024-02-15T16:37:04;100713.66;;;13.91;68.17
84136;BME280;74238;50.566;7.262;2024-02-15T16:39:29;100742.66;;;13.99;67.28
84136;BME280;74238;50.566;7.262;2024-02-15T16:41:55;100678.28;;;13.58;68.85
84136;BME280;74238;50.566;7.262;2024-02-15T16:44:20;100680.72;;;13.65;68.75
84136;BME280;74238;50.566;7.262;2024-02-15T16:46:46;100714.69;;;13.85;68.86
84136;BME280;74238;50.566;7.262;2024-02-15T16:49:14;100717.59;;;13.76;67.71
84136;BME280;74238;50.566;7.262;2024-02-15T16:51:40;100718.59;;;13.70;67.94
84136;BME280;74238;50.566;7.262;2024-02-15T16:54:06;100705.59;;;13.60;69.70
84136;BME280;74238;50.566;7.262;2024-02-15T16:56:34;100677.03;;;13.37;68.64
84136;BME280;74238;50.566;7.262;2024-02-15T16:59:00;100683.44;;;13.28;68.61
84136;BME280;74238;50.566;7.262;2024-02-15T17:01:26;100726.09;;;13.55;69.69
84136;BME280;74238;50.566;7.262;2024-02-15T17:03:51;100720.03;;;13.49;70.00
84136;BME280;74238;50.566;7.262;2024-02-15T17:06:19;100727.91;;;13.52;69.96
84136;BME280;74238;50.566;7.262;2024-02-15T17:08:45;100731.53;;;13.48;70.50
84136;BME280;74238;50.566;7.262;2024-02-15T17:11:11;100695.78;;;13.29;69.94
84136;BME280;74238;50.566;7.262;2024-02-15T17:13:37;100723.81;;;13.39;69.39
84136;BME280;74238;50.566;7.262;2024-02-15T17:16:06;100745.97;;;13.37;69.58
84136;BME280;74238;50.566;7.262;2024-02-15T17:18:32;100716.44;;;13.13;70.20
84136;BME280;74238;50.566;7.262;2024-02-15T17:20:59;100706.06;;;13.02;70.72
84136;BME280;74238;50.566;7.262;2024-02-15T17:23:24;100736.63;;;13.19;71.18
84136;BME280;74238;50.566;7.262;2024-02-15T17:25:50;100708.88;;;12.96;70.27
84136;BME280;74238;50.566;7.262;2024-02-15T17:28:17;100705.31;;;12.97;71.20
84136;BME280;74238;50.566;7.262;2024-02-15T17:30:44;100701.97;;;12.89;70.92
84136;BME280;74238;50.566;7.262;2024-02-15T17:33:10;100727.28;;;13.02;71.34
84136;BME280;74238;50.566;7.262;2024-02-15T17:35:36;100721.22;;;12.97;72.25
84136;BME280;74238;50.566;7.262;2024-02-15T17:38:02;100739.59;;;13.05;71.65
84136;BME280;74238;50.566;7.262;2024-02-15T17:40:28;100729.06;;;13.03;72.33
84136;BME280;74238;50.566;7.262;2024-02-15T17:42:53;100725.56;;;13.01;71.81
84136;BME280;74238;50.566;7.262;2024-02-15T17:45:18;100701.09;;;12.89;71.38
84136;BME280;74238;50.566;7.262;2024-02-15T17:47:44;100724.78;;;12.96;71.16
84136;BME280;74238;50.566;7.262;2024-02-15T17:50:13;100724.84;;;12.95;71.29
84136;BME280;74238;50.566;7.262;2024-02-15T17:52:46;100694.31;;;12.77;71.65
84136;BME280;74238;50.566;7.262;2024-02-15T17:55:13;100727.56;;;12.90;71.57
84136;BME280;74238;50.566;7.262;2024-02-15T17:57:40;100711.94;;;12.78;72.15
84136;BME280;74238;50.566;7.262;2024-02-15T18:00:07;100736.47;;;12.86;71.72
84136;BME280;74238;50.566;7.262;2024-02-15T18:02:37;100694.63;;;12.61;71.75
84136;BME280;74238;50.566;7.262;2024-02-15T18:05:03;100721.59;;;12.80;71.97
84136;BME280;74238;50.566;7.262;2024-02-15T18:07:33;100617.06;;;12.14;72.29
84136;BME280;74238;50.566;7.262;2024-02-15T18:09:59;100721.72;;;12.76;73.00
84136;BME280;74238;50.566;7.262;2024-02-15T18:12:28;100726.94;;;12.79;73.03
84136;BME280;74238;50.566;7.262;2024-02-15T18:14:54;100711.22;;;12.70;72.93
84136;BME280;74238;50.566;7.262;2024-02-15T18:17:19;100684.38;;;12.46;72.69
84136;BME280;74238;50.566;7.262;2024-02-15T18:19:44;100708.00;;;12.55;72.55
84136;BME280;74238;50.566;7.262;2024-02-15T18:22:10;100690.56;;;12.45;73.44
84136;BME280;74238;50.566;7.262;2024-02-15T18:24:35;100678.41;;;12.35;72.65
84136;BME280;74238;50.566;7.262;2024-02-15T18:27:01;100669.72;;;12.30;73.74
84136;BME280;74238;50.566;7.262;2024-02-15T18:29:29;100713.38;;;12.52;73.60
84136;BME280;74238;50.566;7.262;2024-02-15T18:31:54;100671.53;;;12.26;73.88
84136;BME280;74238;50.566;7.262;2024-02-15T18:34:22;100641.00;;;12.10;74.22
84136;BME280;74238;50.566;7.262;2024-02-15T18:36:47;100670.66;;;12.26;74.07
84136;BME280;74238;50.566;7.262;2024-02-15T18:39:14;100669.81;;;12.24;73.45
84136;BME280;74238;50.566;7.262;2024-02-15T18:41:39;100642.69;;;12.12;74.49
84136;BME280;74238;50.566;7.262;2024-02-15T18:44:08;100699.59;;;12.35;74.52
84136;BME280;74238;50.566;7.262;2024-02-15T18:46:33;100695.22;;;12.34;73.95
84136;BME280;74238;50.566;7.262;2024-02-15T18:49:00;100682.03;;;12.31;73.28
84136;BME280;74238;50.566;7.262;2024-02-15T18:51:26;100679.31;;;12.35;74.56
84136;BME280;74238;50.566;7.262;2024-02-15T18:53:52;100662.00;;;12.19;73.63
84136;BME280;74238;50.566;7.262;2024-02-15T18:56:17;100681.03;;;12.36;74.56
84136;BME280;74238;50.566;7.262;2024-02-15T18:58:44;100671.38;;;12.35;74.06
84136;BME280;74238;50.566;7.262;2024-02-15T19:01:10;100655.78;;;12.22;74.18
84136;BME280;74238;50.566;7.262;2024-02-15T19:03:36;100674.09;;;12.32;74.11
84136;BME280;74238;50.566;7.262;2024-02-15T19:06:02;100674.94;;;12.33;73.58
84136;BME280;74238;50.566;7.262;2024-02-15T19:08:28;100612.16;;;11.96;73.61